createdAt,value
2022-10-11T07:53:52.572Z,101462.13
2022-10-11T07:56:30.958Z,101464.41
2022-10-11T07:59:06.464Z,101469.53
2022-10-11T08:01:38.721Z,101467.59
2022-10-11T08:04:10.964Z,101462.97
2022-10-11T08:06:43.238Z,101468.69
2022-10-11T08:09:16.571Z,101465.44
2022-10-11T08:11:48.893Z,101469.41
2022-10-11T08:14:21.417Z,101473.97
2022-10-11T08:16:53.657Z,101480.47
2022-10-11T08:19:25.891Z,101479.44
2022-10-11T08:22:00.588Z,101475.00
2022-10-11T08:24:38.013Z,101474.16
2022-10-11T08:27:10.613Z,101477.84
2022-10-11T08:29:42.889Z,101477.03
2022-10-11T08:32:16.569Z,101480.00
2022-10-11T08:34:49.375Z,101480.03
2022-10-11T08:37:21.641Z,101473.94
2022-10-11T08:39:54.248Z,101484.34
2022-10-11T08:42:42.077Z,101484.72
2022-10-11T08:45:27.117Z,101489.94
2022-10-11T08:48:25.724Z,101490.97
2022-10-11T08:50:58.725Z,101497.56
2022-10-11T08:53:37.188Z,101491.56
2022-10-11T08:56:13.603Z,101499.22
2022-10-11T08:58:50.655Z,101493.22
2022-10-11T09:01:20.765Z,101502.09
2022-10-11T09:03:46.499Z,101497.81
2022-10-11T09:06:11.494Z,101504.72
2022-10-11T09:08:40.529Z,101502.66
2022-10-11T09:11:19.505Z,101498.31
2022-10-11T09:14:07.148Z,101503.38
2022-10-11T09:16:45.743Z,101510.56
2022-10-11T09:19:16.942Z,101510.22
2022-10-11T09:21:45.723Z,101512.91
2022-10-11T09:24:21.776Z,101505.50
2022-10-11T09:26:51.139Z,101514.53
2022-10-11T09:29:20.481Z,101512.22
2022-10-11T09:31:52.557Z,101520.53
2022-10-11T09:34:16.167Z,101517.00
2022-10-11T09:36:41.107Z,101516.69
2022-10-11T09:39:25.823Z,101497.16
2022-10-11T09:42:00.162Z,101506.47
2022-10-11T09:44:24.767Z,101511.19
2022-10-11T09:46:49.267Z,101514.78
2022-10-11T09:49:18.491Z,101522.91
2022-10-11T09:51:45.102Z,101521.78
2022-10-11T09:54:10.561Z,101516.81
2022-10-11T09:56:34.662Z,101519.63
2022-10-11T09:59:07.077Z,101522.91
2022-10-11T10:01:30.940Z,101521.38
2022-10-11T10:04:16.999Z,101531.94
2022-10-11T10:06:40.231Z,101534.13
2022-10-11T10:09:34.918Z,101528.94
2022-10-11T10:11:58.048Z,101535.50
2022-10-11T10:14:24.220Z,101520.16
2022-10-11T10:16:46.426Z,101542.13
2022-10-11T10:19:19.448Z,101543.31
2022-10-11T10:21:47.985Z,101538.66
2022-10-11T10:24:20.939Z,101537.94
2022-10-11T10:26:44.500Z,101549.63
2022-10-11T10:29:12.300Z,101551.53
2022-10-11T10:32:13.268Z,101549.28
2022-10-11T10:34:38.014Z,101542.34
2022-10-11T10:37:06.735Z,101556.81
2022-10-11T10:39:34.371Z,101555.31
2022-10-11T10:41:57.013Z,101548.91
2022-10-11T10:44:19.477Z,101547.38
2022-10-11T10:47:00.233Z,101558.28
2022-10-11T10:49:53.732Z,101554.34
2022-10-11T10:52:20.887Z,101561.69
2022-10-11T10:55:07.807Z,101566.34
2022-10-11T10:57:54.458Z,101561.81
2022-10-11T11:00:21.398Z,101570.56
2022-10-11T11:03:02.451Z,101572.66
2022-10-11T11:05:27.540Z,101568.81
2022-10-11T11:08:27.607Z,101571.41
2022-10-11T11:11:27.017Z,101569.38
2022-10-11T11:14:03.383Z,101564.88
2022-10-11T11:16:31.350Z,101576.47
2022-10-11T11:19:09.859Z,101566.72
2022-10-11T11:21:51.192Z,101565.38
2022-10-11T11:24:34.772Z,101569.75
2022-10-11T11:27:15.727Z,101567.56
2022-10-11T11:29:43.744Z,101565.28
2022-10-11T11:32:34.865Z,101568.03
2022-10-11T11:35:03.900Z,101551.69
2022-10-11T11:37:34.715Z,101562.91
2022-10-11T11:40:07.873Z,101559.13
2022-10-11T11:42:48.532Z,101565.81
2022-10-11T11:45:40.112Z,101572.47
2022-10-11T11:48:04.088Z,101580.78
2022-10-11T11:50:28.623Z,101583.22
2022-10-11T11:53:08.070Z,101572.75
2022-10-11T11:55:48.298Z,101574.94
2022-10-11T11:58:45.503Z,101579.84
2022-10-11T12:01:37.515Z,101576.00
2022-10-11T12:04:05.193Z,101570.81
2022-10-11T12:06:47.764Z,101572.03
2022-10-11T12:09:18.570Z,101573.38
2022-10-11T12:11:46.160Z,101576.72
2022-10-11T12:14:29.752Z,101575.88
2022-10-11T12:17:23.712Z,101582.41
2022-10-11T12:20:24.537Z,101574.69
2022-10-11T12:22:49.544Z,101578.06
2022-10-11T12:25:18.539Z,101583.22
2022-10-11T12:27:44.318Z,101584.63
2022-10-11T12:30:44.257Z,101577.75
2022-10-11T12:33:45.628Z,101577.56
2022-10-11T12:36:29.740Z,101577.44
2022-10-11T12:39:20.566Z,101584.03
2022-10-11T12:41:49.107Z,101575.47
2022-10-11T12:44:28.386Z,101575.34
2022-10-11T12:46:50.217Z,101580.78
2022-10-11T12:49:29.324Z,101577.47
2022-10-11T12:51:51.305Z,101581.19
2022-10-11T12:54:26.678Z,101573.81
2022-10-11T12:57:02.302Z,101576.84
2022-10-11T12:59:25.040Z,101575.28
2022-10-11T13:01:56.621Z,101574.53
2022-10-11T13:04:29.346Z,101578.41
2022-10-11T13:07:01.103Z,101575.56
2022-10-11T13:09:48.082Z,101560.72
2022-10-11T13:12:21.159Z,101568.81
2022-10-11T13:14:48.348Z,101574.28
2022-10-11T13:17:34.493Z,101567.63
2022-10-11T13:20:15.759Z,101572.91
2022-10-11T13:22:40.542Z,101554.16
2022-10-11T13:25:05.662Z,101571.94
2022-10-11T13:27:28.012Z,101566.91
2022-10-11T13:29:53.074Z,101567.78
2022-10-11T13:32:20.006Z,101566.78
2022-10-11T13:34:45.984Z,101571.56
2022-10-11T13:37:17.535Z,101560.25
2022-10-11T13:39:39.506Z,101569.66
2022-10-11T13:42:07.557Z,101562.25
2022-10-11T13:44:33.174Z,101558.47
2022-10-11T13:46:55.741Z,101553.69
2022-10-11T13:49:37.676Z,101548.66
2022-10-11T13:52:03.333Z,101553.88
2022-10-11T13:54:25.305Z,101553.59
2022-10-11T13:56:51.513Z,101555.72
2022-10-11T13:59:20.921Z,101559.63
2022-10-11T14:01:45.531Z,101563.56
2022-10-11T14:04:10.269Z,101555.09
2022-10-11T14:07:00.311Z,101553.84
2022-10-11T14:09:24.122Z,101550.66
2022-10-11T14:11:46.471Z,101544.50
2022-10-11T14:14:30.325Z,101546.47
2022-10-11T14:16:58.808Z,101550.31
2022-10-11T14:19:21.184Z,101548.81
2022-10-11T14:21:46.117Z,101554.63
2022-10-11T14:24:10.673Z,101558.94
2022-10-11T14:26:43.511Z,101549.00
2022-10-11T14:29:14.001Z,101554.75
2022-10-11T14:31:41.357Z,101556.44
2022-10-11T14:34:04.518Z,101547.97
2022-10-11T14:36:26.691Z,101558.03
2022-10-11T14:38:50.224Z,101551.66
2022-10-11T14:41:12.194Z,101556.84
2022-10-11T14:43:34.095Z,101551.69
2022-10-11T14:45:56.010Z,101551.47
2022-10-11T14:48:36.659Z,101559.28
2022-10-11T14:51:03.218Z,101553.34
2022-10-11T14:53:27.085Z,101561.72
2022-10-11T14:55:50.045Z,101557.16
2022-10-11T14:58:14.530Z,101554.31
2022-10-11T15:00:37.183Z,101559.03
2022-10-11T15:02:59.802Z,101557.44
2022-10-11T15:05:24.462Z,101543.72
2022-10-11T15:07:46.554Z,101514.69
2022-10-11T15:10:46.969Z,101557.22
2022-10-11T15:13:09.997Z,101557.03
2022-10-11T15:15:35.414Z,101562.16
2022-10-11T15:17:59.951Z,101563.56
2022-10-11T15:20:44.442Z,101558.78
2022-10-11T15:23:09.535Z,101561.78
2022-10-11T15:25:31.725Z,101558.13
2022-10-11T15:27:53.713Z,101553.88
2022-10-11T15:30:25.135Z,101565.50
2022-10-11T15:32:47.981Z,101567.09
2022-10-11T15:35:11.533Z,101552.28
2022-10-11T15:37:37.294Z,101570.81
2022-10-11T15:39:59.512Z,101571.44
2022-10-11T15:42:23.977Z,101575.75
2022-10-11T15:44:45.944Z,101566.34
2022-10-11T15:47:08.752Z,101575.34
2022-10-11T15:49:30.705Z,101574.44
2022-10-11T15:51:52.755Z,101571.47
2022-10-11T15:54:14.685Z,101534.47
2022-10-11T15:56:36.627Z,101566.97
2022-10-11T15:58:58.714Z,101564.97
2022-10-11T16:01:20.817Z,101573.47
2022-10-11T16:03:43.802Z,101570.75
2022-10-11T16:06:08.636Z,101570.38
2022-10-11T16:08:30.910Z,101565.31
2022-10-11T16:10:53.580Z,101578.31
2022-10-11T16:13:15.890Z,101580.81
2022-10-11T16:15:39.809Z,101580.19
2022-10-11T16:18:02.455Z,101582.34
2022-10-11T16:20:25.821Z,101583.56
2022-10-11T16:22:49.633Z,101585.75
2022-10-11T16:25:11.563Z,101584.91
2022-10-11T16:27:36.149Z,101588.09
2022-10-11T16:30:00.144Z,101572.59
2022-10-11T16:32:22.931Z,101586.25
2022-10-11T16:34:44.785Z,101581.22
2022-10-11T16:37:06.756Z,101589.31
2022-10-11T16:39:29.123Z,101581.47
2022-10-11T16:41:51.168Z,101593.44
2022-10-11T16:44:15.061Z,101589.03
2022-10-11T16:46:37.053Z,101577.97
2022-10-11T16:48:58.953Z,101583.69
2022-10-11T16:51:20.818Z,101580.19
2022-10-11T16:53:42.691Z,101582.09
2022-10-11T16:56:09.158Z,101576.31
2022-10-11T16:58:33.876Z,101583.06
2022-10-11T17:00:55.863Z,101578.31
2022-10-11T17:03:17.926Z,101589.00
2022-10-11T17:05:41.237Z,101587.50
2022-10-11T17:08:03.102Z,101582.91
2022-10-11T17:10:39.442Z,101586.53
2022-10-11T17:13:01.482Z,101585.91
2022-10-11T17:15:26.202Z,101584.94
2022-10-11T17:17:48.130Z,101587.09
2022-10-11T17:20:10.041Z,101591.81
2022-10-11T17:22:33.160Z,101584.53
2022-10-11T17:24:55.103Z,101586.81
2022-10-11T17:27:17.168Z,101584.63
2022-10-11T17:29:40.397Z,101578.09
2022-10-11T17:32:02.649Z,101565.91
2022-10-11T17:34:24.587Z,101578.81
2022-10-11T17:36:46.572Z,101570.09
2022-10-11T17:39:11.927Z,101581.94
2022-10-11T17:41:34.293Z,101582.53
2022-10-11T17:43:56.314Z,101572.47
2022-10-11T17:46:18.708Z,101572.22
2022-10-11T17:48:41.334Z,101580.97
2022-10-11T17:51:17.927Z,101580.56
2022-10-11T17:53:40.716Z,101575.75
2022-10-11T17:56:08.162Z,101581.88
2022-10-11T17:58:30.139Z,101582.28
2022-10-11T18:00:52.150Z,101587.38
2022-10-11T18:03:14.161Z,101577.25
2022-10-11T18:05:41.064Z,101576.13
2022-10-11T18:08:02.979Z,101575.09
2022-10-11T18:10:25.180Z,101566.47
2022-10-11T18:12:47.188Z,101579.94
2022-10-11T18:15:09.475Z,101571.03
2022-10-11T18:17:31.425Z,101583.19
2022-10-11T18:19:53.384Z,101577.19
2022-10-11T18:22:15.376Z,101576.13
2022-10-11T18:24:37.460Z,101572.84
2022-10-11T18:26:59.326Z,101573.97
2022-10-11T18:29:23.764Z,101572.47
2022-10-11T18:31:46.193Z,101561.50
2022-10-11T18:34:10.861Z,101572.63
2022-10-11T18:36:33.368Z,101569.97
2022-10-11T18:38:58.632Z,101567.09
2022-10-11T18:41:22.948Z,101580.56
2022-10-11T18:43:52.946Z,101573.78
2022-10-11T18:46:16.470Z,101570.59
2022-10-11T18:48:43.134Z,101564.47
2022-10-11T18:51:08.107Z,101564.69
2022-10-11T18:53:32.442Z,101562.81
2022-10-11T18:56:02.143Z,101562.16
2022-10-11T18:58:24.150Z,101565.72
2022-10-11T19:00:46.126Z,101565.56
2022-10-11T19:03:09.150Z,101564.41
2022-10-11T19:05:31.094Z,101565.06
2022-10-11T19:07:56.689Z,101554.66
2022-10-11T19:10:21.841Z,101561.19
2022-10-11T19:12:43.942Z,101562.41
2022-10-11T19:15:07.817Z,101562.31
2022-10-11T19:17:30.066Z,101562.97
2022-10-11T19:19:51.967Z,101558.72
2022-10-11T19:22:13.838Z,101552.22
2022-10-11T19:24:35.719Z,101549.75
2022-10-11T19:27:02.498Z,101559.03
2022-10-11T19:29:26.950Z,101563.84
2022-10-11T19:31:55.372Z,101560.06
2022-10-11T19:34:18.182Z,101569.47
2022-10-11T19:36:42.812Z,101562.50
2022-10-11T19:39:06.025Z,101561.63
2022-10-11T19:41:32.013Z,101562.41
2022-10-11T19:43:54.646Z,101550.41
2022-10-11T19:46:37.967Z,101549.97
2022-10-11T19:49:01.992Z,101553.34
2022-10-11T19:51:26.198Z,101563.41
2022-10-11T19:53:57.667Z,101565.06
2022-10-11T19:56:19.672Z,101562.13
2022-10-11T19:58:42.270Z,101563.41
2022-10-11T20:01:17.882Z,101562.28
2022-10-11T20:03:39.909Z,101574.00
2022-10-11T20:06:03.120Z,101558.38
2022-10-11T20:08:25.058Z,101559.63
2022-10-11T20:10:48.421Z,101564.16
2022-10-11T20:13:12.124Z,101562.88
2022-10-11T20:15:37.545Z,101554.13
2022-10-11T20:18:00.554Z,101559.91
2022-10-11T20:20:23.536Z,101555.56
2022-10-11T20:22:45.546Z,101550.22
2022-10-11T20:25:07.867Z,101559.81
2022-10-11T20:27:31.984Z,101560.06
2022-10-11T20:29:54.010Z,101552.75
2022-10-11T20:32:15.929Z,101559.66
2022-10-11T20:34:39.576Z,101554.34
2022-10-11T20:37:01.435Z,101557.34
2022-10-11T20:39:23.883Z,101560.50
2022-10-11T20:41:46.269Z,101562.19
2022-10-11T20:44:12.474Z,101557.59
2022-10-11T20:46:37.097Z,101546.97
2022-10-11T20:49:02.437Z,101558.72
2022-10-11T20:51:24.468Z,101552.56
2022-10-11T20:53:47.463Z,101562.31
2022-10-11T20:56:12.340Z,101556.97
2022-10-11T20:58:35.369Z,101561.44
2022-10-11T21:00:57.311Z,101558.31
2022-10-11T21:03:20.353Z,101560.13
2022-10-11T21:05:43.539Z,101564.59
2022-10-11T21:08:10.324Z,101567.84
2022-10-11T21:10:35.839Z,101564.31
2022-10-11T21:12:57.667Z,101561.63
2022-10-11T21:15:19.532Z,101565.28
2022-10-11T21:17:42.444Z,101558.22
2022-10-11T21:20:06.131Z,101565.53
2022-10-11T21:22:27.993Z,101561.34
2022-10-11T21:24:49.928Z,101558.56
2022-10-11T21:27:11.874Z,101567.56
2022-10-11T21:29:34.927Z,101561.00
2022-10-11T21:31:56.859Z,101568.53
2022-10-11T21:34:18.788Z,101572.16
2022-10-11T21:36:40.897Z,101570.69
2022-10-11T21:39:03.953Z,101559.97
2022-10-11T21:41:29.109Z,101568.00
2022-10-11T21:43:51.942Z,101565.81
2022-10-11T21:46:41.757Z,101572.72
2022-10-11T21:49:12.869Z,101574.25
2022-10-11T21:51:34.747Z,101573.53
2022-10-11T21:53:59.598Z,101573.59
2022-10-11T21:56:21.868Z,101570.78
2022-10-11T21:58:47.606Z,101560.13
2022-10-11T22:01:11.827Z,101569.53
2022-10-11T22:03:33.900Z,101571.13
2022-10-11T22:05:55.813Z,101566.91
2022-10-11T22:08:19.097Z,101559.06
2022-10-11T22:10:51.885Z,101573.56
2022-10-11T22:13:14.906Z,101569.38
2022-10-11T22:15:37.299Z,101579.34
2022-10-11T22:17:59.154Z,101569.16
2022-10-11T22:20:22.000Z,101580.22
2022-10-11T22:22:43.815Z,101565.63
2022-10-11T22:25:08.809Z,101570.13
2022-10-11T22:27:30.666Z,101578.41
2022-10-11T22:29:52.576Z,101575.63
2022-10-11T22:32:14.424Z,101575.00
2022-10-11T22:34:37.775Z,101576.03
2022-10-11T22:36:59.712Z,101579.44
2022-10-11T22:39:23.041Z,101572.44
2022-10-11T22:41:44.961Z,101571.09
2022-10-11T22:44:08.202Z,101573.69
2022-10-11T22:46:30.152Z,101576.28
2022-10-11T22:48:52.104Z,101565.38
2022-10-11T22:51:14.618Z,101573.84
2022-10-11T22:53:36.494Z,101572.41
2022-10-11T22:55:58.787Z,101572.75
2022-10-11T22:58:20.728Z,101567.53
2022-10-11T23:00:42.892Z,101560.31
2022-10-11T23:03:07.169Z,101564.41
2022-10-11T23:05:29.163Z,101569.34
2022-10-11T23:07:52.333Z,101571.06
2022-10-11T23:10:15.594Z,101573.84
2022-10-11T23:12:37.519Z,101565.53
2022-10-11T23:14:59.372Z,101568.63
2022-10-11T23:17:21.640Z,101572.19
2022-10-11T23:19:43.544Z,101574.13
2022-10-11T23:22:05.456Z,101567.47
2022-10-11T23:24:27.332Z,101567.13
2022-10-11T23:26:49.297Z,101570.47
2022-10-11T23:29:11.264Z,101574.13
2022-10-11T23:31:33.133Z,101565.13
2022-10-11T23:33:55.074Z,101572.69
2022-10-11T23:36:19.771Z,101564.94
2022-10-11T23:38:41.767Z,101573.19
2022-10-11T23:41:03.813Z,101568.16
2022-10-11T23:43:25.786Z,101570.97
2022-10-11T23:45:47.710Z,101574.91
2022-10-11T23:48:09.710Z,101579.13
2022-10-11T23:50:31.591Z,101575.25
2022-10-11T23:52:53.696Z,101579.47
2022-10-11T23:55:15.871Z,101580.00
2022-10-11T23:57:38.161Z,101579.34
